sensor_id;sensor_type;location;lat;lon;timestamp;temperature;humidity
20795;DHT22;28087;-33.874;151.240;2023-11-25T00:00:03;21.70;80.30
20795;DHT22;28087;-33.874;151.240;2023-11-25T00:03:10;21.70;80.30
20795;DHT22;28087;-33.874;151.240;2023-11-25T00:06:18;21.70;80.30
20795;DHT22;28087;-33.874;151.240;2023-11-25T00:09:25;21.70;80.30
20795;DHT22;28087;-33.874;151.240;2023-11-25T00:12:31;21.80;80.30
20795;DHT22;28087;-33.874;151.240;2023-11-25T00:15:38;21.60;80.30
20795;DHT22;28087;-33.874;151.240;2023-11-25T00:18:46;21.80;80.30
20795;DHT22;28087;-33.874;151.240;2023-11-25T00:21:54;21.90;80.30
20795;DHT22;28087;-33.874;151.240;2023-11-25T00:25:00;21.80;80.30
20795;DHT22;28087;-33.874;151.240;2023-11-25T00:28:07;21.80;80.30
20795;DHT22;28087;-33.874;151.240;2023-11-25T00:31:15;21.80;80.30
20795;DHT22;28087;-33.874;151.240;2023-11-25T00:34:23;21.90;80.30
20795;DHT22;28087;-33.874;151.240;2023-11-25T00:37:31;21.70;80.30
20795;DHT22;28087;-33.874;151.240;2023-11-25T00:40:38;21.70;80.30
20795;DHT22;28087;-33.874;151.240;2023-11-25T00:43:44;21.70;80.30
20795;DHT22;28087;-33.874;151.240;2023-11-25T00:46:51;21.70;80.30
20795;DHT22;28087;-33.874;151.240;2023-11-25T00:50:03;21.70;80.30
20795;DHT22;28087;-33.874;151.240;2023-11-25T00:53:17;21.80;80.30
20795;DHT22;28087;-33.874;151.240;2023-11-25T00:56:24;21.80;80.30
20795;DHT22;28087;-33.874;151.240;2023-11-25T00:59:32;21.80;80.30
20795;DHT22;28087;-33.874;151.240;2023-11-25T01:02:40;21.90;80.30
20795;DHT22;28087;-33.874;151.240;2023-11-25T01:05:47;21.90;80.30
20795;DHT22;28087;-33.874;151.240;2023-11-25T01:08:55;22.00;80.30
20795;DHT22;28087;-33.874;151.240;2023-11-25T01:12:07;21.90;80.30
20795;DHT22;28087;-33.874;151.240;2023-11-25T01:15:15;21.90;80.30
20795;DHT22;28087;-33.874;151.240;2023-11-25T01:18:23;21.90;80.30
20795;DHT22;28087;-33.874;151.240;2023-11-25T01:21:29;21.90;80.30
20795;DHT22;28087;-33.874;151.240;2023-11-25T01:24:37;22.00;80.30
20795;DHT22;28087;-33.874;151.240;2023-11-25T01:27:47;22.00;80.30
20795;DHT22;28087;-33.874;151.240;2023-11-25T01:30:56;22.10;80.30
20795;DHT22;28087;-33.874;151.240;2023-11-25T01:34:04;22.00;80.30
20795;DHT22;28087;-33.874;151.240;2023-11-25T01:37:11;22.10;80.30
20795;DHT22;28087;-33.874;151.240;2023-11-25T01:40:22;22.00;80.30
20795;DHT22;28087;-33.874;151.240;2023-11-25T01:43:30;22.00;80.30
20795;DHT22;28087;-33.874;151.240;2023-11-25T01:46:38;22.00;80.30
20795;DHT22;28087;-33.874;151.240;2023-11-25T01:49:44;21.90;80.30
20795;DHT22;28087;-33.874;151.240;2023-11-25T01:52:48;21.90;80.30
20795;DHT22;28087;-33.874;151.240;2023-11-25T01:55:54;21.90;80.30
20795;DHT22;28087;-33.874;151.240;2023-11-25T01:59:03;21.90;80.30
20795;DHT22;28087;-33.874;151.240;2023-11-25T02:02:11;22.00;80.30
20795;DHT22;28087;-33.874;151.240;2023-11-25T02:05:21;22.00;80.30
20795;DHT22;28087;-33.874;151.240;2023-11-25T02:08:28;22.00;80.30
20795;DHT22;28087;-33.874;151.240;2023-11-25T02:11:53;22.10;80.30
20795;DHT22;28087;-33.874;151.240;2023-11-25T02:15:00;22.20;80.30
20795;DHT22;28087;-33.874;151.240;2023-11-25T02:18:08;22.20;80.30
20795;DHT22;28087;-33.874;151.240;2023-11-25T02:21:17;22.20;80.30
20795;DHT22;28087;-33.874;151.240;2023-11-25T02:24:25;22.20;80.30
20795;DHT22;28087;-33.874;151.240;2023-11-25T02:27:32;22.20;80.30
20795;DHT22;28087;-33.874;151.240;2023-11-25T02:30:38;22.30;80.30
20795;DHT22;28087;-33.874;151.240;2023-11-25T02:33:44;22.30;80.30
20795;DHT22;28087;-33.874;151.240;2023-11-25T02:36:51;22.40;80.30
20795;DHT22;28087;-33.874;151.240;2023-11-25T02:40:01;22.50;80.30
20795;DHT22;28087;-33.874;151.240;2023-11-25T02:43:11;22.60;80.30
20795;DHT22;28087;-33.874;151.240;2023-11-25T02:46:19;22.70;80.30
20795;DHT22;28087;-33.874;151.240;2023-11-25T02:49:26;22.80;80.30
20795;DHT22;28087;-33.874;151.240;2023-11-25T02:52:33;22.80;80.30
20795;DHT22;28087;-33.874;151.240;2023-11-25T02:55:43;22.60;80.30
20795;DHT22;28087;-33.874;151.240;2023-11-25T02:58:49;22.70;80.30
20795;DHT22;28087;-33.874;151.240;2023-11-25T03:01:56;22.70;80.30
20795;DHT22;28087;-33.874;151.240;2023-11-25T03:05:08;22.70;80.30
20795;DHT22;28087;-33.874;151.240;2023-11-25T03:08:14;22.60;80.30
20795;DHT22;28087;-33.874;151.240;2023-11-25T03:11:21;22.60;80.30
20795;DHT22;28087;-33.874;151.240;2023-11-25T03:14:25;22.60;80.30
20795;DHT22;28087;-33.874;151.240;2023-11-25T03:17:32;22.60;80.30
20795;DHT22;28087;-33.874;151.240;2023-11-25T03:20:40;22.60;80.30
20795;DHT22;28087;-33.874;151.240;2023-11-25T03:23:46;22.60;80.30
20795;DHT22;28087;-33.874;151.240;2023-11-25T03:26:55;22.50;80.30
20795;DHT22;28087;-33.874;151.240;2023-11-25T03:30:03;22.60;80.30
20795;DHT22;28087;-33.874;151.240;2023-11-25T03:33:10;22.50;80.30
20795;DHT22;28087;-33.874;151.240;2023-11-25T03:36:16;22.40;80.30
20795;DHT22;28087;-33.874;151.240;2023-11-25T03:39:23;22.30;80.30
20795;DHT22;28087;-33.874;151.240;2023-11-25T03:42:33;22.40;80.30
20795;DHT22;28087;-33.874;151.240;2023-11-25T03:45:39;22.30;80.30
20795;DHT22;28087;-33.874;151.240;2023-11-25T03:48:47;22.30;80.30
20795;DHT22;28087;-33.874;151.240;2023-11-25T03:51:53;22.20;80.30
20795;DHT22;28087;-33.874;151.240;2023-11-25T03:55:02;22.30;80.30
20795;DHT22;28087;-33.874;151.240;2023-11-25T03:58:07;22.30;80.30
20795;DHT22;28087;-33.874;151.240;2023-11-25T04:01:08;22.40;80.30
20795;DHT22;28087;-33.874;151.240;2023-11-25T04:04:16;22.40;80.30
20795;DHT22;28087;-33.874;151.240;2023-11-25T04:07:24;22.40;80.30
20795;DHT22;28087;-33.874;151.240;2023-11-25T04:10:31;22.50;80.30
20795;DHT22;28087;-33.874;151.240;2023-11-25T04:13:41;22.60;80.30
20795;DHT22;28087;-33.874;151.240;2023-11-25T04:16:48;22.50;80.30
20795;DHT22;28087;-33.874;151.240;2023-11-25T04:20:01;22.40;80.30
20795;DHT22;28087;-33.874;151.240;2023-11-25T04:23:16;22.40;80.30
20795;DHT22;28087;-33.874;151.240;2023-11-25T04:26:22;22.40;80.30
20795;DHT22;28087;-33.874;151.240;2023-11-25T04:29:32;22.20;80.30
20795;DHT22;28087;-33.874;151.240;2023-11-25T04:32:41;22.30;80.30
20795;DHT22;28087;-33.874;151.240;2023-11-25T04:35:49;22.20;80.30
20795;DHT22;28087;-33.874;151.240;2023-11-25T04:38:56;22.00;80.30
20795;DHT22;28087;-33.874;151.240;2023-11-25T04:42:03;22.10;80.30
20795;DHT22;28087;-33.874;151.240;2023-11-25T04:45:13;21.90;80.30
20795;DHT22;28087;-33.874;151.240;2023-11-25T04:48:20;22.00;80.30
20795;DHT22;28087;-33.874;151.240;2023-11-25T04:51:27;21.90;80.30
20795;DHT22;28087;-33.874;151.240;2023-11-25T04:54:34;21.90;80.30
20795;DHT22;28087;-33.874;151.240;2023-11-25T04:57:41;22.00;80.30
20795;DHT22;28087;-33.874;151.240;2023-11-25T05:00:44;21.90;80.30
20795;DHT22;28087;-33.874;151.240;2023-11-25T05:03:44;21.90;80.30
20795;DHT22;28087;-33.874;151.240;2023-11-25T05:06:51;22.00;80.30
20795;DHT22;28087;-33.874;151.240;2023-11-25T05:10:09;22.00;80.30
20795;DHT22;28087;-33.874;151.240;2023-11-25T05:13:18;22.00;80.30
20795;DHT22;28087;-33.874;151.240;2023-11-25T05:16:29;22.00;80.30
20795;DHT22;28087;-33.874;151.240;2023-11-25T05:19:35;22.00;80.30
20795;DHT22;28087;-33.874;151.240;2023-11-25T05:22:41;22.00;80.30
20795;DHT22;28087;-33.874;151.240;2023-11-25T05:25:47;21.90;80.30
20795;DHT22;28087;-33.874;151.240;2023-11-25T05:28:53;22.00;80.30
20795;DHT22;28087;-33.874;151.240;2023-11-25T05:32:02;22.00;80.30
20795;DHT22;28087;-33.874;151.240;2023-11-25T05:35:05;22.00;80.30
20795;DHT22;28087;-33.874;151.240;2023-11-25T05:38:06;21.90;80.30
20795;DHT22;28087;-33.874;151.240;2023-11-25T05:41:14;21.80;80.30
20795;DHT22;28087;-33.874;151.240;2023-11-25T05:44:23;21.90;80.30
20795;DHT22;28087;-33.874;151.240;2023-11-25T05:47:31;21.70;80.30
20795;DHT22;28087;-33.874;151.240;2023-11-25T05:50:38;21.70;80.30
20795;DHT22;28087;-33.874;151.240;2023-11-25T05:53:44;21.80;80.30
20795;DHT22;28087;-33.874;151.240;2023-11-25T05:56:51;21.80;80.30
20795;DHT22;28087;-33.874;151.240;2023-11-25T05:59:58;21.70;80.30
20795;DHT22;28087;-33.874;151.240;2023-11-25T06:03:13;21.70;80.30
20795;DHT22;28087;-33.874;151.240;2023-11-25T06:06:21;21.70;80.30
20795;DHT22;28087;-33.874;151.240;2023-11-25T06:09:27;21.70;80.30
20795;DHT22;28087;-33.874;151.240;2023-11-25T06:12:34;21.80;80.30
20795;DHT22;28087;-33.874;151.240;2023-11-25T06:15:43;21.80;80.30
20795;DHT22;28087;-33.874;151.240;2023-11-25T06:18:52;21.90;80.30
20795;DHT22;28087;-33.874;151.240;2023-11-25T06:22:00;22.00;80.30
20795;DHT22;28087;-33.874;151.240;2023-11-25T06:25:08;22.00;80.30
20795;DHT22;28087;-33.874;151.240;2023-11-25T06:28:14;21.90;80.30
20795;DHT22;28087;-33.874;151.240;2023-11-25T06:31:22;21.90;80.30
20795;DHT22;28087;-33.874;151.240;2023-11-25T06:34:33;21.90;80.30
20795;DHT22;28087;-33.874;151.240;2023-11-25T06:37:39;21.90;80.30
20795;DHT22;28087;-33.874;151.240;2023-11-25T06:40:46;21.90;80.30
20795;DHT22;28087;-33.874;151.240;2023-11-25T06:43:53;21.80;80.30
20795;DHT22;28087;-33.874;151.240;2023-11-25T06:46:53;21.90;80.30
20795;DHT22;28087;-33.874;151.240;2023-11-25T06:49:58;21.80;80.30
20795;DHT22;28087;-33.874;151.240;2023-11-25T06:53:05;21.80;80.30
20795;DHT22;28087;-33.874;151.240;2023-11-25T06:56:12;21.80;80.30
20795;DHT22;28087;-33.874;151.240;2023-11-25T06:59:21;21.80;80.30
20795;DHT22;28087;-33.874;151.240;2023-11-25T07:02:28;21.70;80.30
20795;DHT22;28087;-33.874;151.240;2023-11-25T07:05:38;21.70;80.30
20795;DHT22;28087;-33.874;151.240;2023-11-25T07:08:45;21.80;80.30
20795;DHT22;28087;-33.874;151.240;2023-11-25T07:11:51;21.80;80.30
20795;DHT22;28087;-33.874;151.240;2023-11-25T07:14:59;21.80;80.30
20795;DHT22;28087;-33.874;151.240;2023-11-25T07:18:06;21.70;80.30
20795;DHT22;28087;-33.874;151.240;2023-11-25T07:21:18;21.80;80.30
20795;DHT22;28087;-33.874;151.240;2023-11-25T07:24:24;21.80;80.30
20795;DHT22;28087;-33.874;151.240;2023-11-25T07:27:31;21.80;80.30
20795;DHT22;28087;-33.874;151.240;2023-11-25T07:30:39;21.80;80.30
20795;DHT22;28087;-33.874;151.240;2023-11-25T07:33:45;21.80;80.30
20795;DHT22;28087;-33.874;151.240;2023-11-25T07:36:57;21.90;80.30
20795;DHT22;28087;-33.874;151.240;2023-11-25T07:40:05;21.90;80.30
20795;DHT22;28087;-33.874;151.240;2023-11-25T07:43:12;22.00;80.30
20795;DHT22;28087;-33.874;151.240;2023-11-25T07:46:22;22.00;80.30
20795;DHT22;28087;-33.874;151.240;2023-11-25T07:49:30;22.00;80.30
20795;DHT22;28087;-33.874;151.240;2023-11-25T07:52:41;22.00;80.30
20795;DHT22;28087;-33.874;151.240;2023-11-25T07:55:49;21.90;80.30
20795;DHT22;28087;-33.874;151.240;2023-11-25T07:58:57;21.90;80.30
20795;DHT22;28087;-33.874;151.240;2023-11-25T08:02:04;22.00;80.30
20795;DHT22;28087;-33.874;151.240;2023-11-25T08:05:11;22.00;80.30
20795;DHT22;28087;-33.874;151.240;2023-11-25T08:08:23;21.80;80.30
20795;DHT22;28087;-33.874;151.240;2023-11-25T08:11:29;21.80;80.30
20795;DHT22;28087;-33.874;151.240;2023-11-25T08:14:35;21.90;80.30
20795;DHT22;28087;-33.874;151.240;2023-11-25T08:17:43;21.90;80.30
20795;DHT22;28087;-33.874;151.240;2023-11-25T08:20:50;21.90;80.30
20795;DHT22;28087;-33.874;151.240;2023-11-25T08:23:59;21.90;80.30
20795;DHT22;28087;-33.874;151.240;2023-11-25T08:27:06;21.80;80.30
20795;DHT22;28087;-33.874;151.240;2023-11-25T08:30:13;22.00;80.30
20795;DHT22;28087;-33.874;151.240;2023-11-25T08:33:21;21.90;80.30
20795;DHT22;28087;-33.874;151.240;2023-11-25T08:36:29;21.80;80.30
20795;DHT22;28087;-33.874;151.240;2023-11-25T08:39:46;22.00;80.30
20795;DHT22;28087;-33.874;151.240;2023-11-25T08:42:53;22.00;80.30
20795;DHT22;28087;-33.874;151.240;2023-11-25T08:46:06;21.90;80.30
20795;DHT22;28087;-33.874;151.240;2023-11-25T08:49:18;22.00;80.30
20795;DHT22;28087;-33.874;151.240;2023-11-25T08:52:26;21.90;80.30
20795;DHT22;28087;-33.874;151.240;2023-11-25T08:55:39;21.90;80.30
20795;DHT22;28087;-33.874;151.240;2023-11-25T08:58:46;21.90;80.30
20795;DHT22;28087;-33.874;151.240;2023-11-25T09:01:55;21.80;80.30
20795;DHT22;28087;-33.874;151.240;2023-11-25T09:05:08;21.80;80.30
20795;DHT22;28087;-33.874;151.240;2023-11-25T09:08:19;21.80;80.30
20795;DHT22;28087;-33.874;151.240;2023-11-25T09:11:27;21.80;80.30
20795;DHT22;28087;-33.874;151.240;2023-11-25T09:14:34;21.80;80.30
20795;DHT22;28087;-33.874;151.240;2023-11-25T09:17:41;21.90;80.30
20795;DHT22;28087;-33.874;151.240;2023-11-25T09:20:47;21.80;80.30
20795;DHT22;28087;-33.874;151.240;2023-11-25T09:23:56;21.80;80.30
20795;DHT22;28087;-33.874;151.240;2023-11-25T09:27:05;21.80;80.30
20795;DHT22;28087;-33.874;151.240;2023-11-25T09:30:14;21.80;80.30
20795;DHT22;28087;-33.874;151.240;2023-11-25T09:33:21;21.80;80.30
20795;DHT22;28087;-33.874;151.240;2023-11-25T09:36:29;21.70;80.30
20795;DHT22;28087;-33.874;151.240;2023-11-25T09:39:37;21.70;80.30
20795;DHT22;28087;-33.874;151.240;2023-11-25T09:42:47;21.70;80.30
20795;DHT22;28087;-33.874;151.240;2023-11-25T09:45:53;21.70;80.30
20795;DHT22;28087;-33.874;151.240;2023-11-25T09:49:01;21.60;80.30
20795;DHT22;28087;-33.874;151.240;2023-11-25T09:52:09;21.70;80.30
20795;DHT22;28087;-33.874;151.240;2023-11-25T09:55:17;21.60;80.30
20795;DHT22;28087;-33.874;151.240;2023-11-25T09:58:28;21.80;80.30
20795;DHT22;28087;-33.874;151.240;2023-11-25T10:01:36;21.90;80.30
20795;DHT22;28087;-33.874;151.240;2023-11-25T10:04:47;21.80;80.30
20795;DHT22;28087;-33.874;151.240;2023-11-25T10:07:54;21.70;80.30
20795;DHT22;28087;-33.874;151.240;2023-11-25T10:11:02;21.80;80.30
20795;DHT22;28087;-33.874;151.240;2023-11-25T10:14:14;21.80;80.30
20795;DHT22;28087;-33.874;151.240;2023-11-25T10:17:21;21.90;80.30
20795;DHT22;28087;-33.874;151.240;2023-11-25T10:20:27;21.90;80.30
20795;DHT22;28087;-33.874;151.240;2023-11-25T10:23:35;21.70;80.30
20795;DHT22;28087;-33.874;151.240;2023-11-25T10:26:42;21.70;80.30
20795;DHT22;28087;-33.874;151.240;2023-11-25T10:29:52;21.80;80.30
20795;DHT22;28087;-33.874;151.240;2023-11-25T10:33:02;21.80;80.30
20795;DHT22;28087;-33.874;151.240;2023-11-25T10:36:09;21.70;80.30
20795;DHT22;28087;-33.874;151.240;2023-11-25T10:39:16;21.70;80.30
20795;DHT22;28087;-33.874;151.240;2023-11-25T10:42:22;21.80;80.30
20795;DHT22;28087;-33.874;151.240;2023-11-25T10:45:32;21.90;80.30
20795;DHT22;28087;-33.874;151.240;2023-11-25T10:48:40;21.80;80.30
20795;DHT22;28087;-33.874;151.240;2023-11-25T10:51:47;21.90;80.30
20795;DHT22;28087;-33.874;151.240;2023-11-25T10:54:58;21.90;80.30
20795;DHT22;28087;-33.874;151.240;2023-11-25T10:58:06;21.80;80.30
20795;DHT22;28087;-33.874;151.240;2023-11-25T11:01:15;21.90;80.30
20795;DHT22;28087;-33.874;151.240;2023-11-25T11:04:30;21.90;80.30
20795;DHT22;28087;-33.874;151.240;2023-11-25T11:07:41;21.90;80.30
20795;DHT22;28087;-33.874;151.240;2023-11-25T11:10:55;21.90;80.30
20795;DHT22;28087;-33.874;151.240;2023-11-25T11:14:09;21.90;80.30
20795;DHT22;28087;-33.874;151.240;2023-11-25T11:17:23;21.90;80.30
20795;DHT22;28087;-33.874;151.240;2023-11-25T11:20:44;21.90;80.30
20795;DHT22;28087;-33.874;151.240;2023-11-25T11:23:52;21.90;80.30
20795;DHT22;28087;-33.874;151.240;2023-11-25T11:27:02;21.90;80.30
20795;DHT22;28087;-33.874;151.240;2023-11-25T11:30:15;21.90;80.30
20795;DHT22;28087;-33.874;151.240;2023-11-25T11:33:26;21.90;80.30
20795;DHT22;28087;-33.874;151.240;2023-11-25T11:36:33;21.90;80.30
20795;DHT22;28087;-33.874;151.240;2023-11-25T11:39:45;21.80;80.30
20795;DHT22;28087;-33.874;151.240;2023-11-25T11:43:04;21.90;80.30
20795;DHT22;28087;-33.874;151.240;2023-11-25T11:46:12;21.90;80.30
20795;DHT22;28087;-33.874;151.240;2023-11-25T11:49:19;21.90;80.30
20795;DHT22;28087;-33.874;151.240;2023-11-25T11:52:29;21.90;80.30
20795;DHT22;28087;-33.874;151.240;2023-11-25T11:55:38;21.90;80.30
20795;DHT22;28087;-33.874;151.240;2023-11-25T11:58:55;21.90;80.30
20795;DHT22;28087;-33.874;151.240;2023-11-25T12:02:03;21.80;80.30
20795;DHT22;28087;-33.874;151.240;2023-11-25T12:05:11;21.80;80.30
20795;DHT22;28087;-33.874;151.240;2023-11-25T12:08:20;21.80;80.30
20795;DHT22;28087;-33.874;151.240;2023-11-25T12:11:30;21.80;80.30
20795;DHT22;28087;-33.874;151.240;2023-11-25T12:14:41;21.80;80.30
20795;DHT22;28087;-33.874;151.240;2023-11-25T12:17:48;21.80;80.30
20795;DHT22;28087;-33.874;151.240;2023-11-25T12:20:57;21.90;80.30
20795;DHT22;28087;-33.874;151.240;2023-11-25T12:24:11;21.80;80.30
20795;DHT22;28087;-33.874;151.240;2023-11-25T12:27:19;21.70;80.30
20795;DHT22;28087;-33.874;151.240;2023-11-25T12:30:27;21.80;80.30
20795;DHT22;28087;-33.874;151.240;2023-11-25T12:33:36;21.80;80.30
20795;DHT22;28087;-33.874;151.240;2023-11-25T12:36:43;21.80;80.30
20795;DHT22;28087;-33.874;151.240;2023-11-25T12:39:51;21.80;80.30
20795;DHT22;28087;-33.874;151.240;2023-11-25T12:42:57;21.80;80.30
20795;DHT22;28087;-33.874;151.240;2023-11-25T12:46:10;21.90;80.30
20795;DHT22;28087;-33.874;151.240;2023-11-25T12:49:20;21.80;80.30
20795;DHT22;28087;-33.874;151.240;2023-11-25T12:52:28;21.90;80.30
20795;DHT22;28087;-33.874;151.240;2023-11-25T12:55:35;21.80;80.30
20795;DHT22;28087;-33.874;151.240;2023-11-25T12:58:43;21.80;80.30
20795;DHT22;28087;-33.874;151.240;2023-11-25T13:01:50;21.80;80.30
20795;DHT22;28087;-33.874;151.240;2023-11-25T13:05:00;21.80;80.30
20795;DHT22;28087;-33.874;151.240;2023-11-25T13:08:25;21.80;80.30
20795;DHT22;28087;-33.874;151.240;2023-11-25T13:11:35;21.80;80.30
20795;DHT22;28087;-33.874;151.240;2023-11-25T13:14:42;21.80;80.30
20795;DHT22;28087;-33.874;151.240;2023-11-25T13:17:49;21.80;80.30
20795;DHT22;28087;-33.874;151.240;2023-11-25T13:20:55;21.80;80.30
20795;DHT22;28087;-33.874;151.240;2023-11-25T13:24:06;21.70;80.30
20795;DHT22;28087;-33.874;151.240;2023-11-25T13:27:13;21.70;80.30
20795;DHT22;28087;-33.874;151.240;2023-11-25T13:30:20;21.70;80.30
20795;DHT22;28087;-33.874;151.240;2023-11-25T13:33:28;21.70;80.30
20795;DHT22;28087;-33.874;151.240;2023-11-25T13:36:35;21.70;80.30
20795;DHT22;28087;-33.874;151.240;2023-11-25T13:39:44;21.60;80.30
20795;DHT22;28087;-33.874;151.240;2023-11-25T13:42:50;21.70;80.30
20795;DHT22;28087;-33.874;151.240;2023-11-25T13:45:59;21.70;80.30
20795;DHT22;28087;-33.874;151.240;2023-11-25T13:49:07;21.70;80.30
20795;DHT22;28087;-33.874;151.240;2023-11-25T13:52:22;21.60;80.30
20795;DHT22;28087;-33.874;151.240;2023-11-25T13:55:31;21.70;80.30
20795;DHT22;28087;-33.874;151.240;2023-11-25T13:58:44;21.60;80.30
20795;DHT22;28087;-33.874;151.240;2023-11-25T14:01:50;21.70;80.30
20795;DHT22;28087;-33.874;151.240;2023-11-25T14:05:00;21.70;80.30
20795;DHT22;28087;-33.874;151.240;2023-11-25T14:08:06;21.60;80.30
20795;DHT22;28087;-33.874;151.240;2023-11-25T14:11:19;21.70;80.30
20795;DHT22;28087;-33.874;151.240;2023-11-25T14:14:28;21.50;80.30
20795;DHT22;28087;-33.874;151.240;2023-11-25T14:17:36;21.60;80.30
20795;DHT22;28087;-33.874;151.240;2023-11-25T14:20:45;21.60;80.30
20795;DHT22;28087;-33.874;151.240;2023-11-25T14:23:51;21.60;80.30
20795;DHT22;28087;-33.874;151.240;2023-11-25T14:27:01;21.50;80.30
20795;DHT22;28087;-33.874;151.240;2023-11-25T14:30:07;21.50;80.30
20795;DHT22;28087;-33.874;151.240;2023-11-25T14:33:16;21.50;80.30
20795;DHT22;28087;-33.874;151.240;2023-11-25T14:36:25;21.50;80.30
20795;DHT22;28087;-33.874;151.240;2023-11-25T14:39:33;21.50;80.30
20795;DHT22;28087;-33.874;151.240;2023-11-25T14:42:52;21.50;80.30
20795;DHT22;28087;-33.874;151.240;2023-11-25T14:45:58;21.50;80.30
20795;DHT22;28087;-33.874;151.240;2023-11-25T14:49:05;21.50;80.30
20795;DHT22;28087;-33.874;151.240;2023-11-25T14:52:14;21.50;80.30
20795;DHT22;28087;-33.874;151.240;2023-11-25T14:55:26;21.60;80.30
20795;DHT22;28087;-33.874;151.240;2023-11-25T14:58:36;21.60;80.30
20795;DHT22;28087;-33.874;151.240;2023-11-25T15:01:44;21.50;80.30
20795;DHT22;28087;-33.874;151.240;2023-11-25T15:04:51;21.50;80.30
20795;DHT22;28087;-33.874;151.240;2023-11-25T15:08:06;21.60;80.30
20795;DHT22;28087;-33.874;151.240;2023-11-25T15:11:13;21.60;80.30
20795;DHT22;28087;-33.874;151.240;2023-11-25T15:14:22;21.60;80.30
20795;DHT22;28087;-33.874;151.240;2023-11-25T15:17:23;21.60;80.30
20795;DHT22;28087;-33.874;151.240;2023-11-25T15:20:26;21.60;80.30
20795;DHT22;28087;-33.874;151.240;2023-11-25T15:23:34;21.60;80.30
20795;DHT22;28087;-33.874;151.240;2023-11-25T15:26:42;21.60;80.30
20795;DHT22;28087;-33.874;151.240;2023-11-25T15:30:01;21.50;80.30
20795;DHT22;28087;-33.874;151.240;2023-11-25T15:33:09;21.50;80.30
20795;DHT22;28087;-33.874;151.240;2023-11-25T15:36:15;21.50;80.30
20795;DHT22;28087;-33.874;151.240;2023-11-25T15:39:22;21.60;80.30
20795;DHT22;28087;-33.874;151.240;2023-11-25T15:42:29;21.50;80.30
20795;DHT22;28087;-33.874;151.240;2023-11-25T15:45:42;21.50;80.30
20795;DHT22;28087;-33.874;151.240;2023-11-25T15:48:48;21.50;80.30
20795;DHT22;28087;-33.874;151.240;2023-11-25T15:51:55;21.50;80.30
20795;DHT22;28087;-33.874;151.240;2023-11-25T15:55:01;21.40;80.30
20795;DHT22;28087;-33.874;151.240;2023-11-25T15:58:09;21.40;80.30
20795;DHT22;28087;-33.874;151.240;2023-11-25T16:01:17;21.50;80.30
20795;DHT22;28087;-33.874;151.240;2023-11-25T16:04:25;21.60;80.30
20795;DHT22;28087;-33.874;151.240;2023-11-25T16:07:33;21.50;80.30
20795;DHT22;28087;-33.874;151.240;2023-11-25T16:10:41;21.50;80.30
20795;DHT22;28087;-33.874;151.240;2023-11-25T16:13:49;21.50;80.30
20795;DHT22;28087;-33.874;151.240;2023-11-25T16:16:58;21.50;80.30
20795;DHT22;28087;-33.874;151.240;2023-11-25T16:20:05;21.50;80.30
20795;DHT22;28087;-33.874;151.240;2023-11-25T16:23:14;21.40;80.30
20795;DHT22;28087;-33.874;151.240;2023-11-25T16:26:23;21.40;80.30
20795;DHT22;28087;-33.874;151.240;2023-11-25T16:29:30;21.40;80.30
20795;DHT22;28087;-33.874;151.240;2023-11-25T16:32:39;21.40;80.30
20795;DHT22;28087;-33.874;151.240;2023-11-25T16:35:45;21.30;80.30
20795;DHT22;28087;-33.874;151.240;2023-11-25T16:38:52;21.30;80.30
20795;DHT22;28087;-33.874;151.240;2023-11-25T16:42:00;21.30;80.30
20795;DHT22;28087;-33.874;151.240;2023-11-25T16:45:09;21.30;80.30
20795;DHT22;28087;-33.874;151.240;2023-11-25T16:48:23;21.20;80.30
20795;DHT22;28087;-33.874;151.240;2023-11-25T16:51:42;21.20;80.30
20795;DHT22;28087;-33.874;151.240;2023-11-25T16:54:50;21.20;80.30
20795;DHT22;28087;-33.874;151.240;2023-11-25T16:57:56;21.20;80.30
20795;DHT22;28087;-33.874;151.240;2023-11-25T17:01:02;21.20;80.30
20795;DHT22;28087;-33.874;151.240;2023-11-25T17:04:11;21.10;80.30
20795;DHT22;28087;-33.874;151.240;2023-11-25T17:07:18;21.10;80.30
20795;DHT22;28087;-33.874;151.240;2023-11-25T17:10:27;21.00;80.30
20795;DHT22;28087;-33.874;151.240;2023-11-25T17:13:33;20.90;80.30
20795;DHT22;28087;-33.874;151.240;2023-11-25T17:16:40;21.00;80.30
20795;DHT22;28087;-33.874;151.240;2023-11-25T17:19:52;20.90;80.30
20795;DHT22;28087;-33.874;151.240;2023-11-25T17:22:59;20.90;80.30
20795;DHT22;28087;-33.874;151.240;2023-11-25T17:26:05;20.90;80.30
20795;DHT22;28087;-33.874;151.240;2023-11-25T17:29:12;21.00;80.30
20795;DHT22;28087;-33.874;151.240;2023-11-25T17:32:18;21.00;80.30
20795;DHT22;28087;-33.874;151.240;2023-11-25T17:35:26;21.00;80.30
20795;DHT22;28087;-33.874;151.240;2023-11-25T17:38:33;21.00;80.30
20795;DHT22;28087;-33.874;151.240;2023-11-25T17:41:39;21.10;80.30
20795;DHT22;28087;-33.874;151.240;2023-11-25T17:44:46;21.00;80.30
20795;DHT22;28087;-33.874;151.240;2023-11-25T17:47:53;21.00;80.30
20795;DHT22;28087;-33.874;151.240;2023-11-25T17:50:55;21.00;80.30
20795;DHT22;28087;-33.874;151.240;2023-11-25T17:53:56;21.00;80.30
20795;DHT22;28087;-33.874;151.240;2023-11-25T17:57:02;21.10;80.30
20795;DHT22;28087;-33.874;151.240;2023-11-25T18:00:13;21.10;80.30
20795;DHT22;28087;-33.874;151.240;2023-11-25T18:03:20;21.00;80.30
20795;DHT22;28087;-33.874;151.240;2023-11-25T18:06:29;21.00;80.30
20795;DHT22;28087;-33.874;151.240;2023-11-25T18:09:35;21.00;80.30
20795;DHT22;28087;-33.874;151.240;2023-11-25T18:12:42;20.90;80.30
20795;DHT22;28087;-33.874;151.240;2023-11-25T18:15:49;20.90;80.30
20795;DHT22;28087;-33.874;151.240;2023-11-25T18:18:56;20.90;80.30
20795;DHT22;28087;-33.874;151.240;2023-11-25T18:22:05;20.80;80.30
20795;DHT22;28087;-33.874;151.240;2023-11-25T18:25:11;20.80;80.30
20795;DHT22;28087;-33.874;151.240;2023-11-25T18:28:18;20.90;80.30
20795;DHT22;28087;-33.874;151.240;2023-11-25T18:31:26;20.80;80.30
20795;DHT22;28087;-33.874;151.240;2023-11-25T18:34:34;20.90;80.30
20795;DHT22;28087;-33.874;151.240;2023-11-25T18:37:42;20.90;80.30
20795;DHT22;28087;-33.874;151.240;2023-11-25T18:40:49;20.90;80.30
20795;DHT22;28087;-33.874;151.240;2023-11-25T18:43:56;20.90;80.30
20795;DHT22;28087;-33.874;151.240;2023-11-25T18:47:03;21.00;80.30
20795;DHT22;28087;-33.874;151.240;2023-11-25T18:50:09;21.00;80.30
20795;DHT22;28087;-33.874;151.240;2023-11-25T18:53:22;21.10;80.30